sensor_id;sensor_type;location;lat;lon;timestamp;P1;durP1;ratioP1;P2;durP2;ratioP2
20236;SDS011;10277;54.386;18.596;2022-12-18T00:02:11;53.90;;;24.33;;
20236;SDS011;10277;54.386;18.596;2022-12-18T00:07:14;58.23;;;26.67;;
20236;SDS011;10277;54.386;18.596;2022-12-18T00:12:17;60.50;;;27.23;;
20236;SDS011;10277;54.386;18.596;2022-12-18T00:17:39;59.87;;;26.43;;
20236;SDS011;10277;54.386;18.596;2022-12-18T00:22:42;59.10;;;26.80;;
20236;SDS011;10277;54.386;18.596;2022-12-18T00:27:45;56.47;;;24.40;;
20236;SDS011;10277;54.386;18.596;2022-12-18T00:32:49;60.27;;;25.67;;
20236;SDS011;10277;54.386;18.596;2022-12-18T00:37:52;50.03;;;22.70;;
20236;SDS011;10277;54.386;18.596;2022-12-18T00:42:55;48.90;;;21.33;;
20236;SDS011;10277;54.386;18.596;2022-12-18T00:47:59;46.13;;;20.63;;
20236;SDS011;10277;54.386;18.596;2022-12-18T00:53:02;48.37;;;20.77;;
20236;SDS011;10277;54.386;18.596;2022-12-18T00:58:05;35.13;;;17.30;;
20236;SDS011;10277;54.386;18.596;2022-12-18T01:03:10;52.80;;;22.77;;
20236;SDS011;10277;54.386;18.596;2022-12-18T01:08:17;54.03;;;23.57;;
20236;SDS011;10277;54.386;18.596;2022-12-18T01:13:21;50.33;;;21.33;;
20236;SDS011;10277;54.386;18.596;2022-12-18T01:18:25;61.70;;;24.63;;
20236;SDS011;10277;54.386;18.596;2022-12-18T01:23:28;58.53;;;25.70;;
20236;SDS011;10277;54.386;18.596;2022-12-18T01:28:31;59.17;;;25.63;;
20236;SDS011;10277;54.386;18.596;2022-12-18T01:33:34;61.57;;;25.13;;
20236;SDS011;10277;54.386;18.596;2022-12-18T01:38:38;51.90;;;23.03;;
20236;SDS011;10277;54.386;18.596;2022-12-18T01:48:52;56.37;;;24.57;;
20236;SDS011;10277;54.386;18.596;2022-12-18T01:54:03;54.20;;;24.57;;
20236;SDS011;10277;54.386;18.596;2022-12-18T01:59:06;53.07;;;24.03;;
20236;SDS011;10277;54.386;18.596;2022-12-18T02:09:42;54.97;;;24.37;;
20236;SDS011;10277;54.386;18.596;2022-12-18T02:20:49;53.20;;;22.30;;
20236;SDS011;10277;54.386;18.596;2022-12-18T02:26:10;52.50;;;21.77;;
20236;SDS011;10277;54.386;18.596;2022-12-18T02:31:15;53.73;;;21.47;;
20236;SDS011;10277;54.386;18.596;2022-12-18T02:36:20;49.17;;;21.97;;
20236;SDS011;10277;54.386;18.596;2022-12-18T02:41:25;49.20;;;20.77;;
20236;SDS011;10277;54.386;18.596;2022-12-18T02:46:30;45.97;;;20.07;;
20236;SDS011;10277;54.386;18.596;2022-12-18T02:51:46;47.27;;;20.73;;
20236;SDS011;10277;54.386;18.596;2022-12-18T02:56:55;51.43;;;19.03;;
20236;SDS011;10277;54.386;18.596;2022-12-18T03:02:01;42.70;;;18.57;;
20236;SDS011;10277;54.386;18.596;2022-12-18T03:07:08;42.53;;;17.20;;
20236;SDS011;10277;54.386;18.596;2022-12-18T03:12:21;34.77;;;16.37;;
20236;SDS011;10277;54.386;18.596;2022-12-18T03:17:32;34.20;;;14.20;;
20236;SDS011;10277;54.386;18.596;2022-12-18T03:22:36;30.10;;;13.13;;
20236;SDS011;10277;54.386;18.596;2022-12-18T03:27:42;31.27;;;13.47;;
20236;SDS011;10277;54.386;18.596;2022-12-18T03:38:32;21.57;;;10.80;;
20236;SDS011;10277;54.386;18.596;2022-12-18T03:43:40;32.17;;;13.40;;
20236;SDS011;10277;54.386;18.596;2022-12-18T03:48:51;36.17;;;14.43;;
20236;SDS011;10277;54.386;18.596;2022-12-18T03:53:58;33.47;;;14.70;;
20236;SDS011;10277;54.386;18.596;2022-12-18T03:59:10;27.37;;;13.40;;
20236;SDS011;10277;54.386;18.596;2022-12-18T04:04:15;25.73;;;12.17;;
20236;SDS011;10277;54.386;18.596;2022-12-18T04:09:19;28.10;;;14.20;;
20236;SDS011;10277;54.386;18.596;2022-12-18T04:14:24;32.10;;;13.00;;
20236;SDS011;10277;54.386;18.596;2022-12-18T04:19:30;27.50;;;12.60;;
20236;SDS011;10277;54.386;18.596;2022-12-18T04:24:34;23.60;;;11.00;;
20236;SDS011;10277;54.386;18.596;2022-12-18T04:29:46;29.67;;;12.53;;
20236;SDS011;10277;54.386;18.596;2022-12-18T04:34:50;24.37;;;11.73;;
20236;SDS011;10277;54.386;18.596;2022-12-18T04:39:54;22.97;;;11.33;;
20236;SDS011;10277;54.386;18.596;2022-12-18T04:45:06;22.00;;;10.43;;
20236;SDS011;10277;54.386;18.596;2022-12-18T04:50:10;22.17;;;10.43;;
20236;SDS011;10277;54.386;18.596;2022-12-18T04:55:13;21.83;;;10.00;;
20236;SDS011;10277;54.386;18.596;2022-12-18T05:00:16;22.27;;;10.07;;
20236;SDS011;10277;54.386;18.596;2022-12-18T05:05:19;18.80;;;9.43;;
20236;SDS011;10277;54.386;18.596;2022-12-18T05:10:22;16.60;;;8.80;;
20236;SDS011;10277;54.386;18.596;2022-12-18T05:15:29;18.50;;;8.93;;
20236;SDS011;10277;54.386;18.596;2022-12-18T05:20:33;17.63;;;9.30;;
20236;SDS011;10277;54.386;18.596;2022-12-18T05:25:36;20.10;;;8.97;;
20236;SDS011;10277;54.386;18.596;2022-12-18T05:30:40;17.27;;;9.70;;
20236;SDS011;10277;54.386;18.596;2022-12-18T05:35:43;17.77;;;8.90;;
20236;SDS011;10277;54.386;18.596;2022-12-18T05:40:50;18.53;;;8.03;;
20236;SDS011;10277;54.386;18.596;2022-12-18T05:45:54;22.07;;;8.70;;
20236;SDS011;10277;54.386;18.596;2022-12-18T05:51:03;16.97;;;8.50;;
20236;SDS011;10277;54.386;18.596;2022-12-18T05:56:11;14.70;;;8.37;;
20236;SDS011;10277;54.386;18.596;2022-12-18T06:01:17;15.07;;;6.73;;
20236;SDS011;10277;54.386;18.596;2022-12-18T06:06:23;10.00;;;5.43;;
20236;SDS011;10277;54.386;18.596;2022-12-18T06:11:27;13.77;;;8.47;;
20236;SDS011;10277;54.386;18.596;2022-12-18T06:16:31;15.23;;;8.93;;
20236;SDS011;10277;54.386;18.596;2022-12-18T06:21:34;22.57;;;9.87;;
20236;SDS011;10277;54.386;18.596;2022-12-18T06:26:40;18.33;;;9.67;;
20236;SDS011;10277;54.386;18.596;2022-12-18T06:31:43;16.23;;;7.63;;
20236;SDS011;10277;54.386;18.596;2022-12-18T06:36:47;18.33;;;9.00;;
20236;SDS011;10277;54.386;18.596;2022-12-18T06:41:50;19.27;;;8.70;;
20236;SDS011;10277;54.386;18.596;2022-12-18T06:46:53;19.83;;;9.57;;
20236;SDS011;10277;54.386;18.596;2022-12-18T06:51:56;17.50;;;8.90;;
20236;SDS011;10277;54.386;18.596;2022-12-18T06:56:59;18.97;;;9.13;;
20236;SDS011;10277;54.386;18.596;2022-12-18T07:02:03;22.40;;;11.27;;
20236;SDS011;10277;54.386;18.596;2022-12-18T07:07:06;20.93;;;11.27;;
20236;SDS011;10277;54.386;18.596;2022-12-18T07:12:09;24.53;;;12.53;;
20236;SDS011;10277;54.386;18.596;2022-12-18T07:17:13;21.37;;;10.80;;
20236;SDS011;10277;54.386;18.596;2022-12-18T07:22:16;41.63;;;19.73;;
20236;SDS011;10277;54.386;18.596;2022-12-18T07:27:19;27.97;;;14.17;;
20236;SDS011;10277;54.386;18.596;2022-12-18T07:32:22;29.00;;;16.80;;
20236;SDS011;10277;54.386;18.596;2022-12-18T07:37:26;25.00;;;14.20;;
20236;SDS011;10277;54.386;18.596;2022-12-18T07:42:29;25.07;;;13.63;;
20236;SDS011;10277;54.386;18.596;2022-12-18T07:47:35;27.67;;;14.60;;
20236;SDS011;10277;54.386;18.596;2022-12-18T07:52:39;21.00;;;12.30;;
20236;SDS011;10277;54.386;18.596;2022-12-18T07:57:42;28.00;;;16.07;;
20236;SDS011;10277;54.386;18.596;2022-12-18T08:02:59;30.00;;;16.00;;
20236;SDS011;10277;54.386;18.596;2022-12-18T08:08:02;27.07;;;16.10;;
20236;SDS011;10277;54.386;18.596;2022-12-18T08:13:05;35.97;;;20.20;;
20236;SDS011;10277;54.386;18.596;2022-12-18T08:18:08;31.90;;;15.43;;
20236;SDS011;10277;54.386;18.596;2022-12-18T08:23:19;29.10;;;14.70;;
20236;SDS011;10277;54.386;18.596;2022-12-18T08:28:22;27.57;;;13.57;;
20236;SDS011;10277;54.386;18.596;2022-12-18T08:33:25;29.17;;;15.37;;
20236;SDS011;10277;54.386;18.596;2022-12-18T08:38:28;22.10;;;11.50;;
20236;SDS011;10277;54.386;18.596;2022-12-18T08:43:32;27.00;;;12.80;;
20236;SDS011;10277;54.386;18.596;2022-12-18T08:48:54;26.30;;;12.13;;
20236;SDS011;10277;54.386;18.596;2022-12-18T08:53:58;23.13;;;12.17;;
20236;SDS011;10277;54.386;18.596;2022-12-18T08:59:01;22.13;;;11.37;;
20236;SDS011;10277;54.386;18.596;2022-12-18T09:04:05;18.33;;;8.63;;
20236;SDS011;10277;54.386;18.596;2022-12-18T09:09:09;26.43;;;12.90;;
20236;SDS011;10277;54.386;18.596;2022-12-18T09:14:13;13.70;;;7.40;;
20236;SDS011;10277;54.386;18.596;2022-12-18T09:19:16;23.97;;;11.70;;
20236;SDS011;10277;54.386;18.596;2022-12-18T09:24:19;65.47;;;22.47;;
20236;SDS011;10277;54.386;18.596;2022-12-18T09:29:22;29.97;;;17.07;;
20236;SDS011;10277;54.386;18.596;2022-12-18T09:34:26;23.57;;;12.30;;
20236;SDS011;10277;54.386;18.596;2022-12-18T09:39:29;25.30;;;13.67;;
20236;SDS011;10277;54.386;18.596;2022-12-18T09:44:33;20.90;;;12.03;;
20236;SDS011;10277;54.386;18.596;2022-12-18T09:49:51;24.13;;;11.70;;
20236;SDS011;10277;54.386;18.596;2022-12-18T09:54:58;31.47;;;18.27;;
20236;SDS011;10277;54.386;18.596;2022-12-18T10:00:21;34.50;;;16.93;;
20236;SDS011;10277;54.386;18.596;2022-12-18T10:05:33;33.47;;;15.77;;
20236;SDS011;10277;54.386;18.596;2022-12-18T10:10:48;30.97;;;14.23;;
20236;SDS011;10277;54.386;18.596;2022-12-18T10:21:24;43.17;;;20.70;;
20236;SDS011;10277;54.386;18.596;2022-12-18T10:26:35;28.17;;;14.27;;
20236;SDS011;10277;54.386;18.596;2022-12-18T10:31:38;32.47;;;13.40;;
20236;SDS011;10277;54.386;18.596;2022-12-18T10:36:41;23.63;;;12.10;;
20236;SDS011;10277;54.386;18.596;2022-12-18T10:41:44;32.23;;;14.23;;
20236;SDS011;10277;54.386;18.596;2022-12-18T10:46:53;37.70;;;14.37;;
20236;SDS011;10277;54.386;18.596;2022-12-18T10:52:05;27.23;;;14.93;;
20236;SDS011;10277;54.386;18.596;2022-12-18T10:57:15;30.83;;;15.33;;
20236;SDS011;10277;54.386;18.596;2022-12-18T11:02:35;23.80;;;12.57;;
20236;SDS011;10277;54.386;18.596;2022-12-18T11:07:48;24.60;;;10.83;;
20236;SDS011;10277;54.386;18.596;2022-12-18T11:13:07;20.93;;;9.90;;
20236;SDS011;10277;54.386;18.596;2022-12-18T11:18:26;20.97;;;10.77;;
20236;SDS011;10277;54.386;18.596;2022-12-18T11:23:43;24.97;;;13.40;;
20236;SDS011;10277;54.386;18.596;2022-12-18T11:28:52;19.63;;;9.80;;
20236;SDS011;10277;54.386;18.596;2022-12-18T11:34:28;22.70;;;11.47;;
20236;SDS011;10277;54.386;18.596;2022-12-18T11:44:50;18.60;;;9.67;;
20236;SDS011;10277;54.386;18.596;2022-12-18T11:49:55;25.17;;;10.57;;
20236;SDS011;10277;54.386;18.596;2022-12-18T11:55:08;20.87;;;10.27;;
20236;SDS011;10277;54.386;18.596;2022-12-18T12:00:18;26.33;;;12.77;;
20236;SDS011;10277;54.386;18.596;2022-12-18T12:05:31;32.00;;;15.37;;
20236;SDS011;10277;54.386;18.596;2022-12-18T12:21:59;24.60;;;14.50;;
20236;SDS011;10277;54.386;18.596;2022-12-18T12:32:22;26.13;;;11.60;;
20236;SDS011;10277;54.386;18.596;2022-12-18T12:43:00;24.13;;;11.23;;
20236;SDS011;10277;54.386;18.596;2022-12-18T12:48:21;23.13;;;11.60;;
20236;SDS011;10277;54.386;18.596;2022-12-18T12:53:33;20.13;;;8.60;;
20236;SDS011;10277;54.386;18.596;2022-12-18T13:08:52;15.10;;;7.63;;
20236;SDS011;10277;54.386;18.596;2022-12-18T13:14:00;19.57;;;8.47;;
20236;SDS011;10277;54.386;18.596;2022-12-18T13:19:03;18.10;;;8.37;;
20236;SDS011;10277;54.386;18.596;2022-12-18T13:24:22;29.93;;;12.13;;
20236;SDS011;10277;54.386;18.596;2022-12-18T13:29:40;21.10;;;10.10;;
20236;SDS011;10277;54.386;18.596;2022-12-18T13:34:45;19.57;;;9.10;;
20236;SDS011;10277;54.386;18.596;2022-12-18T13:39:48;17.83;;;8.03;;
20236;SDS011;10277;54.386;18.596;2022-12-18T13:44:51;18.27;;;7.97;;
20236;SDS011;10277;54.386;18.596;2022-12-18T13:49:54;15.73;;;8.37;;
20236;SDS011;10277;54.386;18.596;2022-12-18T13:54:59;18.00;;;8.63;;
20236;SDS011;10277;54.386;18.596;2022-12-18T14:05:35;16.13;;;8.00;;
20236;SDS011;10277;54.386;18.596;2022-12-18T14:10:45;20.73;;;11.10;;
20236;SDS011;10277;54.386;18.596;2022-12-18T14:15:51;22.40;;;12.73;;
20236;SDS011;10277;54.386;18.596;2022-12-18T14:20:59;209.63;;;60.13;;
20236;SDS011;10277;54.386;18.596;2022-12-18T14:31:32;20.87;;;10.33;;
20236;SDS011;10277;54.386;18.596;2022-12-18T14:36:35;22.27;;;11.30;;
20236;SDS011;10277;54.386;18.596;2022-12-18T14:41:39;21.03;;;10.67;;
20236;SDS011;10277;54.386;18.596;2022-12-18T14:46:42;20.13;;;9.87;;
20236;SDS011;10277;54.386;18.596;2022-12-18T14:51:48;21.20;;;10.50;;
20236;SDS011;10277;54.386;18.596;2022-12-18T15:07:22;34.53;;;14.97;;
20236;SDS011;10277;54.386;18.596;2022-12-18T15:12:33;27.67;;;11.90;;
20236;SDS011;10277;54.386;18.596;2022-12-18T15:17:38;21.67;;;10.80;;
20236;SDS011;10277;54.386;18.596;2022-12-18T15:22:41;23.87;;;11.27;;
20236;SDS011;10277;54.386;18.596;2022-12-18T15:27:48;22.47;;;10.93;;
20236;SDS011;10277;54.386;18.596;2022-12-18T15:32:52;23.37;;;11.27;;
20236;SDS011;10277;54.386;18.596;2022-12-18T15:38:29;24.73;;;11.33;;
20236;SDS011;10277;54.386;18.596;2022-12-18T15:43:32;52.80;;;30.50;;
20236;SDS011;10277;54.386;18.596;2022-12-18T15:48:40;24.60;;;10.63;;
20236;SDS011;10277;54.386;18.596;2022-12-18T15:53:47;26.57;;;12.03;;
20236;SDS011;10277;54.386;18.596;2022-12-18T15:58:52;41.53;;;18.47;;
20236;SDS011;10277;54.386;18.596;2022-12-18T16:03:55;24.40;;;12.10;;
20236;SDS011;10277;54.386;18.596;2022-12-18T16:08:58;27.63;;;12.63;;
20236;SDS011;10277;54.386;18.596;2022-12-18T16:14:01;25.20;;;11.27;;
20236;SDS011;10277;54.386;18.596;2022-12-18T16:19:05;36.77;;;16.33;;
20236;SDS011;10277;54.386;18.596;2022-12-18T16:24:18;30.70;;;12.43;;
20236;SDS011;10277;54.386;18.596;2022-12-18T16:29:24;32.13;;;15.53;;
20236;SDS011;10277;54.386;18.596;2022-12-18T16:34:31;28.07;;;11.97;;
20236;SDS011;10277;54.386;18.596;2022-12-18T16:39:37;29.67;;;11.97;;
20236;SDS011;10277;54.386;18.596;2022-12-18T16:44:43;39.97;;;19.10;;
20236;SDS011;10277;54.386;18.596;2022-12-18T16:49:47;33.10;;;15.80;;
20236;SDS011;10277;54.386;18.596;2022-12-18T16:54:53;29.43;;;12.70;;
20236;SDS011;10277;54.386;18.596;2022-12-18T16:59:56;37.60;;;18.07;;
20236;SDS011;10277;54.386;18.596;2022-12-18T17:05:06;38.87;;;17.30;;
20236;SDS011;10277;54.386;18.596;2022-12-18T17:10:10;38.73;;;18.23;;
20236;SDS011;10277;54.386;18.596;2022-12-18T17:15:13;42.23;;;18.60;;
20236;SDS011;10277;54.386;18.596;2022-12-18T17:20:17;37.03;;;15.13;;
20236;SDS011;10277;54.386;18.596;2022-12-18T17:25:21;31.70;;;15.10;;
20236;SDS011;10277;54.386;18.596;2022-12-18T17:30:26;37.00;;;18.03;;
20236;SDS011;10277;54.386;18.596;2022-12-18T17:35:29;30.57;;;13.23;;
20236;SDS011;10277;54.386;18.596;2022-12-18T17:40:33;31.13;;;14.00;;
20236;SDS011;10277;54.386;18.596;2022-12-18T17:45:37;32.60;;;14.43;;
20236;SDS011;10277;54.386;18.596;2022-12-18T17:50:41;35.87;;;17.30;;
20236;SDS011;10277;54.386;18.596;2022-12-18T17:55:55;35.20;;;15.40;;
20236;SDS011;10277;54.386;18.596;2022-12-18T18:00:59;32.07;;;14.73;;
20236;SDS011;10277;54.386;18.596;2022-12-18T18:06:02;48.87;;;22.30;;
20236;SDS011;10277;54.386;18.596;2022-12-18T18:11:07;100.43;;;44.23;;
20236;SDS011;10277;54.386;18.596;2022-12-18T18:16:32;35.20;;;15.50;;
20236;SDS011;10277;54.386;18.596;2022-12-18T18:21:43;41.50;;;16.10;;
20236;SDS011;10277;54.386;18.596;2022-12-18T18:26:48;40.50;;;18.23;;
20236;SDS011;10277;54.386;18.596;2022-12-18T18:31:52;39.63;;;17.50;;
20236;SDS011;10277;54.386;18.596;2022-12-18T18:36:55;35.17;;;12.83;;
20236;SDS011;10277;54.386;18.596;2022-12-18T18:41:58;37.17;;;16.70;;
20236;SDS011;10277;54.386;18.596;2022-12-18T18:47:04;38.87;;;15.10;;
20236;SDS011;10277;54.386;18.596;2022-12-18T18:52:11;56.90;;;23.70;;
20236;SDS011;10277;54.386;18.596;2022-12-18T18:57:14;93.40;;;37.93;;
20236;SDS011;10277;54.386;18.596;2022-12-18T19:02:23;55.20;;;23.70;;
20236;SDS011;10277;54.386;18.596;2022-12-18T19:07:27;47.40;;;18.93;;
20236;SDS011;10277;54.386;18.596;2022-12-18T19:12:32;52.47;;;20.30;;
20236;SDS011;10277;54.386;18.596;2022-12-18T19:17:56;51.20;;;18.93;;
20236;SDS011;10277;54.386;18.596;2022-12-18T19:22:59;47.53;;;20.67;;
20236;SDS011;10277;54.386;18.596;2022-12-18T19:28:03;48.30;;;20.07;;
20236;SDS011;10277;54.386;18.596;2022-12-18T19:33:08;52.93;;;24.33;;
20236;SDS011;10277;54.386;18.596;2022-12-18T19:38:31;56.73;;;23.63;;
20236;SDS011;10277;54.386;18.596;2022-12-18T19:43:38;61.97;;;26.10;;
20236;SDS011;10277;54.386;18.596;2022-12-18T19:48:41;67.90;;;26.50;;
20236;SDS011;10277;54.386;18.596;2022-12-18T19:53:46;65.03;;;25.20;;
20236;SDS011;10277;54.386;18.596;2022-12-18T19:58:58;68.10;;;25.83;;
20236;SDS011;10277;54.386;18.596;2022-12-18T20:04:01;66.13;;;27.93;;
20236;SDS011;10277;54.386;18.596;2022-12-18T20:09:05;61.07;;;26.50;;
20236;SDS011;10277;54.386;18.596;2022-12-18T20:14:09;69.93;;;24.60;;
20236;SDS011;10277;54.386;18.596;2022-12-18T20:19:13;73.87;;;27.03;;
20236;SDS011;10277;54.386;18.596;2022-12-18T20:24:36;61.03;;;23.43;;
20236;SDS011;10277;54.386;18.596;2022-12-18T20:29:39;57.70;;;24.03;;
20236;SDS011;10277;54.386;18.596;2022-12-18T20:34:43;61.53;;;20.63;;
20236;SDS011;10277;54.386;18.596;2022-12-18T20:39:46;59.90;;;22.27;;
20236;SDS011;10277;54.386;18.596;2022-12-18T20:44:49;67.30;;;21.60;;
20236;SDS011;10277;54.386;18.596;2022-12-18T20:49:52;66.07;;;21.03;;
20236;SDS011;10277;54.386;18.596;2022-12-18T20:54:56;58.10;;;21.33;;
20236;SDS011;10277;54.386;18.596;2022-12-18T21:00:01;69.93;;;26.00;;
20236;SDS011;10277;54.386;18.596;2022-12-18T21:05:04;62.57;;;24.07;;
20236;SDS011;10277;54.386;18.596;2022-12-18T21:10:07;58.93;;;23.60;;
20236;SDS011;10277;54.386;18.596;2022-12-18T21:15:11;68.50;;;24.20;;
20236;SDS011;10277;54.386;18.596;2022-12-18T21:20:14;69.47;;;25.37;;
20236;SDS011;10277;54.386;18.596;2022-12-18T21:25:20;65.27;;;22.87;;
20236;SDS011;10277;54.386;18.596;2022-12-18T21:30:23;72.27;;;25.87;;
20236;SDS011;10277;54.386;18.596;2022-12-18T21:35:25;73.93;;;23.23;;
20236;SDS011;10277;54.386;18.596;2022-12-18T21:40:32;71.67;;;22.97;;
20236;SDS011;10277;54.386;18.596;2022-12-18T21:45:35;68.80;;;25.07;;
20236;SDS011;10277;54.386;18.596;2022-12-18T21:50:38;69.83;;;26.20;;
20236;SDS011;10277;54.386;18.596;2022-12-18T21:55:41;67.63;;;24.47;;
20236;SDS011;10277;54.386;18.596;2022-12-18T22:00:43;63.53;;;23.27;;
20236;SDS011;10277;54.386;18.596;2022-12-18T22:05:50;71.80;;;25.60;;
20236;SDS011;10277;54.386;18.596;2022-12-18T22:11:10;66.10;;;24.13;;
20236;SDS011;10277;54.386;18.596;2022-12-18T22:16:14;64.70;;;23.53;;
20236;SDS011;10277;54.386;18.596;2022-12-18T22:21:30;74.03;;;25.13;;
20236;SDS011;10277;54.386;18.596;2022-12-18T22:26:35;76.30;;;26.07;;
20236;SDS011;10277;54.386;18.596;2022-12-18T22:31:41;83.33;;;29.57;;
20236;SDS011;10277;54.386;18.596;2022-12-18T22:36:45;71.53;;;22.67;;
20236;SDS011;10277;54.386;18.596;2022-12-18T22:41:50;76.90;;;24.93;;
20236;SDS011;10277;54.386;18.596;2022-12-18T22:46:53;68.20;;;24.63;;
20236;SDS011;10277;54.386;18.596;2022-12-18T22:52:08;74.37;;;25.93;;
20236;SDS011;10277;54.386;18.596;2022-12-18T22:57:16;68.50;;;21.50;;
20236;SDS011;10277;54.386;18.596;2022-12-18T23:02:19;68.27;;;22.93;;
20236;SDS011;10277;54.386;18.596;2022-12-18T23:07:23;66.83;;;23.97;;
20236;SDS011;10277;54.386;18.596;2022-12-18T23:12:27;63.27;;;23.73;;
20236;SDS011;10277;54.386;18.596;2022-12-18T23:17:30;70.60;;;24.07;;
20236;SDS011;10277;54.386;18.596;2022-12-18T23:22:36;74.77;;;25.13;;
20236;SDS011;10277;54.386;18.596;2022-12-18T23:28:19;99.97;;;32.53;;
20236;SDS011;10277;54.386;18.596;2022-12-18T23:33:23;85.83;;;29.67;;
20236;SDS011;10277;54.386;18.596;2022-12-18T23:38:29;78.70;;;25.97;;
20236;SDS011;10277;54.386;18.596;2022-12-18T23:43:34;85.97;;;28.63;;
20236;SDS011;10277;54.386;18.596;2022-12-18T23:48:37;82.80;;;27.07;;
20236;SDS011;10277;54.386;18.596;2022-12-18T23:53:41;87.67;;;28.70;;
20236;SDS011;10277;54.386;18.596;2022-12-18T23:58:45;89.83;;;26.30;;
